Aquebogue, New York
Current Conditions -  °F | °C
As of 4:53 PM on Friday 31 Oct 2014 (Local Time) from KFOK Reporting Station
Overcast Overcast  
Wind Chill: 55°   Ceiling: 7000
Heat Index: 55°   Visibility: 10mi
Dew Point: 44°   Wind: 7mph
Humidity: 67%   Direction: 40°NE
Pressure: 29.91"   Gusts: NA
Location:  40.94°N, 72.61°W
Report Text: KFOK 312053Z 04006KT 10SM OVC070 13/07 A2991 RMK AO2 SLP129 T01280067 55006
Loading
Personal Weather Stations






























Interactive Weather Map
Tropical Storm Tracking
New forecast layout! Learn more

10-Day Weather Forecast

Advertisements
Track Severe Weather on mobile